createdAt,value
2018-06-19T00:00:37.401Z,13.03
2018-06-19T00:03:05.792Z,12.97
2018-06-19T00:05:34.102Z,12.97
2018-06-19T00:08:02.988Z,12.50
2018-06-19T00:10:32.224Z,13.73
2018-06-19T00:13:00.547Z,13.80
2018-06-19T00:15:28.857Z,13.53
2018-06-19T00:18:01.187Z,14.53
2018-06-19T00:20:29.535Z,13.90
2018-06-19T00:22:57.838Z,14.90
2018-06-19T00:25:26.169Z,14.40
2018-06-19T00:27:54.205Z,14.47
2018-06-19T00:30:22.521Z,13.97
2018-06-19T00:32:50.801Z,13.70
2018-06-19T00:35:19.084Z,15.13
2018-06-19T00:37:47.379Z,14.40
2018-06-19T00:40:15.689Z,14.83
2018-06-19T00:42:43.975Z,15.20
2018-06-19T00:45:12.263Z,15.80
2018-06-19T00:47:40.589Z,14.90
2018-06-19T00:50:09.005Z,15.77
2018-06-19T00:52:37.299Z,15.60
2018-06-19T00:55:05.579Z,17.17
2018-06-19T00:57:33.881Z,16.10
2018-06-19T01:00:02.181Z,15.67
2018-06-19T01:02:30.477Z,16.17
2018-06-19T01:04:58.789Z,15.97
2018-06-19T01:07:27.095Z,16.83
2018-06-19T01:09:55.389Z,17.77
2018-06-19T01:12:23.689Z,17.43
2018-06-19T01:14:51.971Z,16.37
2018-06-19T01:17:20.259Z,15.80
2018-06-19T01:19:48.553Z,17.40
2018-06-19T01:22:16.825Z,17.13
2018-06-19T01:24:45.101Z,17.00
2018-06-19T01:27:13.411Z,15.90
2018-06-19T01:29:41.728Z,15.43
2018-06-19T01:32:10.035Z,16.10
2018-06-19T01:34:38.395Z,16.27
2018-06-19T01:37:06.718Z,15.63
2018-06-19T01:39:35.013Z,15.30
2018-06-19T01:42:03.299Z,15.27
2018-06-19T01:44:31.563Z,13.80
2018-06-19T01:46:59.884Z,15.33
2018-06-19T01:49:28.291Z,13.60
2018-06-19T01:51:56.573Z,14.70
2018-06-19T01:54:24.875Z,14.97
2018-06-19T01:56:53.169Z,14.93
2018-06-19T01:59:21.433Z,14.20
2018-06-19T02:01:49.765Z,14.40
2018-06-19T02:04:18.059Z,13.73
2018-06-19T02:06:46.430Z,13.97
2018-06-19T02:09:14.703Z,14.87
2018-06-19T02:11:42.978Z,14.00
2018-06-19T02:14:11.333Z,13.90
2018-06-19T02:16:39.607Z,14.43
2018-06-19T02:19:07.923Z,13.57
2018-06-19T02:21:36.201Z,13.63
2018-06-19T02:24:04.496Z,13.27
2018-06-19T02:26:32.789Z,13.83
2018-06-19T02:29:01.141Z,13.73
2018-06-19T02:31:29.437Z,13.63
2018-06-19T02:33:57.743Z,13.70
2018-06-19T02:36:26.038Z,13.27
2018-06-19T02:38:54.321Z,11.97
2018-06-19T02:41:22.616Z,13.57
2018-06-19T02:43:50.931Z,13.00
2018-06-19T02:46:19.245Z,12.80
2018-06-19T02:48:47.521Z,13.73
2018-06-19T02:51:15.837Z,11.90
2018-06-19T02:53:44.124Z,12.30
2018-06-19T02:56:12.435Z,12.10
2018-06-19T02:58:40.736Z,11.80
2018-06-19T03:01:09.081Z,12.40
2018-06-19T03:03:37.380Z,11.93
2018-06-19T03:06:05.797Z,12.30
2018-06-19T03:08:34.143Z,11.20
2018-06-19T03:11:02.437Z,11.47
2018-06-19T03:13:30.725Z,12.00
2018-06-19T03:15:59.077Z,11.63
2018-06-19T03:18:27.371Z,10.50
2018-06-19T03:20:55.681Z,10.80
2018-06-19T03:23:23.996Z,11.07
2018-06-19T03:25:52.307Z,10.97
2018-06-19T03:28:20.605Z,9.67
2018-06-19T03:30:48.889Z,9.80
2018-06-19T03:33:17.169Z,9.53
2018-06-19T03:35:45.463Z,9.63
2018-06-19T03:38:13.757Z,9.20
2018-06-19T03:40:42.051Z,9.50
2018-06-19T03:43:10.316Z,8.77
2018-06-19T03:45:38.617Z,8.47
2018-06-19T03:48:07.761Z,8.80
2018-06-19T03:50:36.053Z,8.70
2018-06-19T03:53:04.412Z,8.60
2018-06-19T03:55:32.741Z,7.57
2018-06-19T03:58:01.051Z,7.40
2018-06-19T04:00:29.347Z,7.63
2018-06-19T04:02:57.642Z,8.00
2018-06-19T04:05:25.921Z,7.03
2018-06-19T04:07:54.205Z,8.17
2018-06-19T04:10:22.491Z,7.17
2018-06-19T04:12:50.806Z,7.60
2018-06-19T04:15:19.245Z,7.10
2018-06-19T04:17:47.578Z,7.77
2018-06-19T04:20:15.873Z,7.20
2018-06-19T04:22:44.149Z,8.03
2018-06-19T04:25:12.447Z,7.47
2018-06-19T04:27:40.755Z,7.27
2018-06-19T04:30:09.043Z,7.57
2018-06-19T04:32:37.335Z,6.83
2018-06-19T04:35:05.623Z,7.63
2018-06-19T04:37:33.922Z,6.97
2018-06-19T04:40:02.219Z,7.57
2018-06-19T04:42:30.493Z,6.90
2018-06-19T04:44:58.794Z,7.17
2018-06-19T04:47:27.095Z,7.47
2018-06-19T04:49:55.457Z,6.33
2018-06-19T04:52:23.772Z,6.53
2018-06-19T04:54:52.054Z,7.10
2018-06-19T04:57:20.348Z,7.20
2018-06-19T04:59:48.659Z,6.97
2018-06-19T05:02:16.964Z,6.83
2018-06-19T05:04:45.244Z,6.60
2018-06-19T05:07:13.555Z,7.07
2018-06-19T05:09:41.885Z,7.37
2018-06-19T05:12:10.193Z,6.77
2018-06-19T05:14:38.514Z,6.77
2018-06-19T05:17:06.845Z,7.37
2018-06-19T05:19:35.170Z,6.83
2018-06-19T05:22:03.475Z,6.37
2018-06-19T05:24:31.538Z,6.47
2018-06-19T05:26:59.845Z,6.93
2018-06-19T05:29:28.207Z,6.80
2018-06-19T05:31:56.526Z,7.60
2018-06-19T05:34:24.829Z,7.00
2018-06-19T05:36:53.106Z,7.27
2018-06-19T05:39:21.415Z,6.90
2018-06-19T05:41:49.721Z,6.90
2018-06-19T05:44:18.027Z,6.70
2018-06-19T05:46:46.377Z,7.13
2018-06-19T05:49:14.703Z,6.70
2018-06-19T05:51:43.019Z,7.17
2018-06-19T05:54:11.322Z,7.17
2018-06-19T05:56:39.609Z,7.13
2018-06-19T05:59:07.917Z,6.57
2018-06-19T06:01:36.243Z,6.73
2018-06-19T06:04:04.570Z,7.00
2018-06-19T06:06:32.887Z,6.53
2018-06-19T06:09:01.161Z,6.30
2018-06-19T06:11:29.436Z,6.20
2018-06-19T06:13:57.723Z,6.67
2018-06-19T06:16:26.112Z,6.43
2018-06-19T06:18:54.371Z,6.63
2018-06-19T06:21:22.759Z,6.83
2018-06-19T06:23:51.099Z,6.77
2018-06-19T06:26:19.395Z,6.93
2018-06-19T06:28:47.688Z,6.33
2018-06-19T06:31:16.001Z,6.17
2018-06-19T06:33:44.297Z,5.90
2018-06-19T06:36:12.481Z,6.80
2018-06-19T06:38:40.827Z,6.60
2018-06-19T06:41:09.108Z,7.37
2018-06-19T06:43:37.425Z,6.60
2018-06-19T06:46:05.914Z,7.00
2018-06-19T06:48:34.229Z,6.77
2018-06-19T06:51:02.559Z,7.00
2018-06-19T06:53:31.669Z,6.57
2018-06-19T06:55:59.999Z,6.47
2018-06-19T06:58:28.711Z,6.97
2018-06-19T07:00:57.001Z,7.87
2018-06-19T07:03:26.691Z,7.77
2018-06-19T07:05:55.024Z,8.13
2018-06-19T07:08:23.338Z,8.13
2018-06-19T07:10:51.650Z,8.90
2018-06-19T07:13:19.913Z,8.87
2018-06-19T07:15:48.322Z,8.27
2018-06-19T07:18:16.642Z,8.77
2018-06-19T07:20:44.986Z,8.43
2018-06-19T07:23:13.273Z,9.43
2018-06-19T07:25:41.597Z,8.87
2018-06-19T07:28:09.883Z,9.50
2018-06-19T07:30:38.169Z,9.53
2018-06-19T07:33:06.505Z,9.30
2018-06-19T07:35:34.839Z,9.37
2018-06-19T07:38:03.185Z,9.47
2018-06-19T07:40:31.465Z,10.17
2018-06-19T07:43:03.535Z,10.00
2018-06-19T07:45:32.161Z,10.33
2018-06-19T07:48:00.965Z,10.90
2018-06-19T07:50:30.061Z,11.03
2018-06-19T07:52:58.439Z,10.60
2018-06-19T07:55:26.863Z,10.97
2018-06-19T07:57:55.145Z,10.13
2018-06-19T08:00:23.901Z,11.03
2018-06-19T08:02:52.227Z,11.77
2018-06-19T08:05:20.515Z,11.00
2018-06-19T08:07:48.843Z,11.77
2018-06-19T08:10:17.153Z,11.23
2018-06-19T08:12:45.837Z,12.00
2018-06-19T08:15:14.199Z,12.97
2018-06-19T08:17:42.509Z,13.50
2018-06-19T08:20:11.259Z,13.00
2018-06-19T08:22:39.676Z,12.37
2018-06-19T08:25:08.038Z,13.27
2018-06-19T08:27:36.341Z,12.47
2018-06-19T08:30:04.751Z,12.87
2018-06-19T08:32:33.075Z,12.20
2018-06-19T08:35:01.433Z,13.33
2018-06-19T08:37:29.781Z,12.83
2018-06-19T08:39:58.083Z,12.70
2018-06-19T08:42:26.443Z,12.23
2018-06-19T08:44:54.768Z,12.50
2018-06-19T08:47:23.111Z,13.17
2018-06-19T08:49:51.445Z,12.77
2018-06-19T08:52:19.806Z,12.67
2018-06-19T08:54:48.129Z,12.63
2018-06-19T08:57:16.519Z,11.57
2018-06-19T08:59:44.839Z,12.00
2018-06-19T09:02:13.142Z,12.33
2018-06-19T09:04:41.485Z,13.17
2018-06-19T09:07:09.999Z,12.93
2018-06-19T09:09:38.305Z,13.17
2018-06-19T09:12:06.831Z,12.63
2018-06-19T09:14:35.258Z,13.37
2018-06-19T09:17:03.597Z,12.80
2018-06-19T09:19:31.637Z,13.03
2018-06-19T09:21:59.968Z,14.40
2018-06-19T09:24:28.387Z,14.23
2018-06-19T09:26:56.675Z,14.50
2018-06-19T09:29:25.103Z,15.43
2018-06-19T09:31:53.457Z,14.63
2018-06-19T09:34:21.680Z,15.40
2018-06-19T09:36:49.993Z,15.27
2018-06-19T09:39:18.299Z,14.80
2018-06-19T09:41:46.625Z,14.37
2018-06-19T09:44:15.018Z,15.37
2018-06-19T09:46:43.321Z,15.83
2018-06-19T09:49:11.735Z,15.20
2018-06-19T09:51:41.295Z,16.20
2018-06-19T09:54:09.603Z,15.63
2018-06-19T09:56:37.925Z,15.77
2018-06-19T09:59:06.307Z,16.50
2018-06-19T10:01:34.683Z,15.77
2018-06-19T10:04:03.269Z,13.80
2018-06-19T10:06:31.814Z,14.33
2018-06-19T10:09:00.251Z,13.50
2018-06-19T10:11:28.555Z,13.07
2018-06-19T10:13:56.860Z,13.07
2018-06-19T10:16:25.186Z,12.30
2018-06-19T10:18:53.505Z,13.37
2018-06-19T10:21:21.825Z,14.33
2018-06-19T10:23:50.118Z,13.67
2018-06-19T10:26:18.473Z,12.50
2018-06-19T10:28:46.803Z,12.43
2018-06-19T10:31:15.103Z,13.17
2018-06-19T10:33:43.403Z,13.10
2018-06-19T10:36:11.718Z,13.70
2018-06-19T10:38:40.055Z,13.13
2018-06-19T10:41:15.098Z,12.50
2018-06-19T10:43:43.387Z,12.17
2018-06-19T10:46:11.881Z,10.40
2018-06-19T10:48:40.211Z,11.40
2018-06-19T10:51:08.591Z,10.70
2018-06-19T10:53:36.915Z,10.00
2018-06-19T10:56:05.246Z,10.13
2018-06-19T10:58:33.597Z,9.23
2018-06-19T11:01:01.923Z,9.27
2018-06-19T11:03:30.805Z,8.70
2018-06-19T11:06:05.991Z,8.10
2018-06-19T11:08:34.294Z,8.33
2018-06-19T11:11:02.651Z,8.90
2018-06-19T11:13:31.308Z,9.00
2018-06-19T11:15:59.776Z,9.47
2018-06-19T11:18:28.125Z,9.17
2018-06-19T11:20:56.727Z,9.53
2018-06-19T11:23:25.644Z,9.57
2018-06-19T11:25:53.937Z,9.30
2018-06-19T11:28:22.257Z,9.13
2018-06-19T11:30:50.541Z,8.87
2018-06-19T11:33:18.871Z,9.37
2018-06-19T11:35:47.341Z,9.80
2018-06-19T11:38:15.878Z,10.73
2018-06-19T11:40:44.264Z,8.60
2018-06-19T11:43:12.635Z,8.00
2018-06-19T11:45:40.981Z,8.40
2018-06-19T11:48:09.453Z,8.33
2018-06-19T11:50:37.898Z,9.07
2018-06-19T11:53:06.273Z,8.20
2018-06-19T11:55:34.330Z,8.70
2018-06-19T11:58:02.721Z,8.17
2018-06-19T12:00:31.047Z,8.87
2018-06-19T12:02:59.363Z,9.03
2018-06-19T12:05:27.720Z,10.90
2018-06-19T12:07:56.083Z,10.77
2018-06-19T12:10:24.470Z,10.80
2018-06-19T12:12:52.785Z,11.30
2018-06-19T12:15:21.123Z,11.70
2018-06-19T12:17:49.467Z,11.30
2018-06-19T12:20:17.829Z,11.70
2018-06-19T12:22:46.201Z,11.37
2018-06-19T12:25:14.274Z,11.43
2018-06-19T12:27:42.345Z,11.23
2018-06-19T12:30:10.735Z,11.17
2018-06-19T12:33:41.763Z,10.13
2018-06-19T12:36:09.820Z,9.03
2018-06-19T12:38:38.418Z,5.80
2018-06-19T12:41:07.078Z,5.00
2018-06-19T12:43:35.471Z,4.57
2018-06-19T12:46:03.818Z,3.67
2018-06-19T12:48:32.195Z,3.43
2018-06-19T12:52:10.189Z,2.63
2018-06-19T12:54:53.188Z,2.30
2018-06-19T12:57:21.584Z,2.20
2018-06-19T12:59:49.871Z,2.20
2018-06-19T13:02:18.239Z,2.20
2018-06-19T13:04:58.058Z,2.60
2018-06-19T13:07:27.340Z,2.77
2018-06-19T13:09:55.808Z,2.93
2018-06-19T13:12:35.633Z,3.30
2018-06-19T13:15:04.059Z,3.03
2018-06-19T13:17:43.685Z,3.00
2018-06-19T13:20:23.319Z,2.63
2018-06-19T13:22:52.207Z,2.50
2018-06-19T13:25:20.551Z,2.07
2018-06-19T13:27:48.865Z,2.07
2018-06-19T13:30:28.561Z,1.80
2018-06-19T13:32:57.595Z,1.90
2018-06-19T13:35:25.991Z,2.10
2018-06-19T13:37:54.322Z,2.10
2018-06-19T13:41:30.995Z,2.47
2018-06-19T13:44:13.141Z,2.50
2018-06-19T13:46:41.806Z,2.60
2018-06-19T13:49:10.114Z,3.23
2018-06-19T13:51:38.427Z,3.40
2018-06-19T13:54:06.761Z,2.83
2018-06-19T13:57:46.271Z,2.67
2018-06-19T14:00:16.525Z,2.50
2018-06-19T14:02:44.857Z,2.83
2018-06-19T14:05:14.091Z,2.80
2018-06-19T14:08:51.087Z,3.17
2018-06-19T14:11:30.875Z,2.93
2018-06-19T14:13:59.300Z,3.17
2018-06-19T14:16:27.621Z,2.67
2018-06-19T14:18:55.931Z,3.33
2018-06-19T14:21:24.233Z,2.67
2018-06-19T14:23:52.545Z,3.00
2018-06-19T14:26:20.852Z,2.60
2018-06-19T14:28:49.208Z,2.60
2018-06-19T14:31:17.513Z,2.90
2018-06-19T14:33:45.827Z,2.60
2018-06-19T14:36:14.157Z,2.90
2018-06-19T14:38:42.493Z,2.60
2018-06-19T14:41:10.809Z,2.60
2018-06-19T14:43:39.140Z,2.33
2018-06-19T14:46:07.445Z,2.27
2018-06-19T14:48:35.749Z,2.10
2018-06-19T14:51:04.025Z,2.10
2018-06-19T14:53:32.352Z,1.70
2018-06-19T14:56:00.640Z,1.83
2018-06-19T14:58:28.948Z,1.80
2018-06-19T15:00:57.323Z,2.03
2018-06-19T15:03:25.689Z,1.77
2018-06-19T15:05:53.989Z,1.90
2018-06-19T15:08:22.378Z,1.90
2018-06-19T15:10:50.705Z,1.50
2018-06-19T15:13:19.016Z,2.70
2018-06-19T15:15:47.314Z,1.97
2018-06-19T15:18:15.708Z,2.13
2018-06-19T15:20:44.008Z,2.20
2018-06-19T15:23:12.300Z,1.90
2018-06-19T15:25:40.682Z,2.03
2018-06-19T15:28:09.066Z,2.00
2018-06-19T15:30:37.387Z,2.13
2018-06-19T15:33:05.754Z,2.13
2018-06-19T15:35:34.101Z,1.90
2018-06-19T15:38:02.413Z,2.10
2018-06-19T15:40:30.801Z,2.30
2018-06-19T15:42:59.112Z,2.53
2018-06-19T15:45:27.448Z,2.47
2018-06-19T15:47:55.746Z,2.33
2018-06-19T15:50:24.142Z,2.57
2018-06-19T15:52:52.442Z,2.60
2018-06-19T15:55:20.782Z,2.63
2018-06-19T15:57:49.080Z,2.47
2018-06-19T16:00:17.158Z,2.30
2018-06-19T16:02:45.500Z,2.43
2018-06-19T16:05:13.830Z,2.30
2018-06-19T16:07:47.628Z,2.33
2018-06-19T16:10:15.944Z,2.37
2018-06-19T16:12:44.309Z,2.37
2018-06-19T16:15:12.630Z,2.53
2018-06-19T16:17:40.985Z,2.83
2018-06-19T16:20:09.295Z,2.77
2018-06-19T16:22:37.363Z,2.47
2018-06-19T16:25:05.391Z,2.80
2018-06-19T16:27:33.715Z,2.70
2018-06-19T16:30:03.140Z,2.77
2018-06-19T16:32:31.456Z,2.40
2018-06-19T16:34:59.796Z,2.67
2018-06-19T16:37:28.174Z,2.83
2018-06-19T16:39:56.482Z,2.73
2018-06-19T16:42:24.838Z,2.63
2018-06-19T16:44:53.168Z,2.70
2018-06-19T16:47:21.482Z,2.80
2018-06-19T16:49:49.784Z,2.90
2018-06-19T16:52:18.109Z,3.23
2018-06-19T16:54:46.472Z,2.90
2018-06-19T16:57:14.798Z,2.67
2018-06-19T16:59:43.120Z,2.83
2018-06-19T17:02:11.466Z,2.70
2018-06-19T17:04:39.832Z,2.70
2018-06-19T17:07:08.208Z,2.93
2018-06-19T17:09:36.584Z,2.73
2018-06-19T17:12:04.870Z,2.67
2018-06-19T17:14:33.174Z,2.10
2018-06-19T17:17:01.476Z,1.90
2018-06-19T17:19:29.830Z,2.20
2018-06-19T17:21:58.168Z,2.20
2018-06-19T17:24:26.652Z,2.10
2018-06-19T17:26:54.962Z,2.23
2018-06-19T17:29:23.291Z,2.33
2018-06-19T17:31:51.624Z,2.40
2018-06-19T17:34:19.951Z,2.30
2018-06-19T17:36:48.254Z,2.43
2018-06-19T17:39:16.622Z,2.10
2018-06-19T17:41:44.928Z,2.10
2018-06-19T17:44:13.256Z,2.30
2018-06-19T17:46:41.576Z,2.50
2018-06-19T17:49:09.910Z,2.40
2018-06-19T17:51:38.247Z,2.47
2018-06-19T17:54:06.621Z,2.50
2018-06-19T17:56:34.682Z,2.60
2018-06-19T17:59:03.131Z,2.93
2018-06-19T18:01:31.446Z,2.73
2018-06-19T18:03:59.776Z,2.47
2018-06-19T18:06:28.109Z,2.70
2018-06-19T18:08:56.418Z,2.90
2018-06-19T18:11:24.772Z,2.90
2018-06-19T18:13:53.092Z,2.70
2018-06-19T18:16:21.416Z,3.00
2018-06-19T18:18:56.243Z,2.73
2018-06-19T18:21:25.086Z,3.27
2018-06-19T18:23:53.479Z,2.87
2018-06-19T18:26:21.765Z,2.77
2018-06-19T18:28:50.138Z,2.90
2018-06-19T18:31:18.455Z,2.70
2018-06-19T18:33:46.849Z,2.37
2018-06-19T18:36:15.188Z,2.70
2018-06-19T18:38:43.518Z,2.60
2018-06-19T18:41:11.888Z,2.80
2018-06-19T18:43:39.908Z,2.73
2018-06-19T18:46:08.239Z,3.40
2018-06-19T18:48:36.541Z,2.87
2018-06-19T18:51:04.850Z,3.30
2018-06-19T18:53:33.186Z,3.30
2018-06-19T18:56:01.508Z,3.37
2018-06-19T18:58:29.583Z,3.50
2018-06-19T19:00:57.638Z,3.10
2018-06-19T19:03:26.036Z,3.37
2018-06-19T19:05:54.098Z,3.40
2018-06-19T19:08:23.805Z,2.93
2018-06-19T19:10:54.557Z,2.83
2018-06-19T19:13:24.110Z,3.53
2018-06-19T19:15:57.760Z,3.43
2018-06-19T19:18:31.386Z,3.13
2018-06-19T19:21:00.465Z,3.40
2018-06-19T19:23:29.442Z,3.20
2018-06-19T19:25:57.837Z,3.10
2018-06-19T19:28:31.681Z,3.20
2018-06-19T19:31:00.066Z,3.47
2018-06-19T19:33:28.468Z,3.30
2018-06-19T19:35:56.801Z,3.40
2018-06-19T19:38:30.403Z,3.03
2018-06-19T19:40:58.795Z,3.40
2018-06-19T19:43:27.248Z,3.00
2018-06-19T19:45:55.603Z,3.63
2018-06-19T19:48:29.410Z,3.17
2018-06-19T19:50:57.734Z,3.13
2018-06-19T19:53:26.084Z,3.33
2018-06-19T19:55:59.735Z,3.53
2018-06-19T19:58:33.348Z,3.40
2018-06-19T20:01:01.659Z,3.20
2018-06-19T20:03:30.009Z,2.97
2018-06-19T20:05:58.420Z,3.40
2018-06-19T20:08:27.616Z,3.43
2018-06-19T20:10:55.950Z,3.37
2018-06-19T20:13:24.335Z,3.33
2018-06-19T20:15:52.656Z,3.07
2018-06-19T20:20:55.553Z,3.90
2018-06-19T20:23:23.888Z,4.03
2018-06-19T20:25:52.208Z,3.83
2018-06-19T20:28:20.518Z,3.60
2018-06-19T20:30:48.833Z,3.87
2018-06-19T20:33:17.171Z,3.60
2018-06-19T20:35:45.530Z,3.60
2018-06-19T20:38:14.458Z,3.10
2018-06-19T20:40:42.804Z,3.13
2018-06-19T20:43:11.128Z,3.83
2018-06-19T20:45:40.324Z,3.30
2018-06-19T20:48:08.802Z,3.30
2018-06-19T20:50:39.166Z,3.53
2018-06-19T20:53:07.545Z,3.60
2018-06-19T20:55:35.856Z,3.60
2018-06-19T20:58:04.233Z,3.27
2018-06-19T21:00:32.716Z,3.00
2018-06-19T21:03:01.074Z,3.33
2018-06-19T21:05:29.422Z,3.20
2018-06-19T21:07:57.484Z,3.20
2018-06-19T21:10:25.991Z,3.30
2018-06-19T21:12:54.288Z,3.33
2018-06-19T21:15:23.542Z,2.93
2018-06-19T21:17:51.883Z,2.97
2018-06-19T21:20:20.198Z,2.87
2018-06-19T21:22:50.160Z,2.90
2018-06-19T21:25:18.546Z,2.90
2018-06-19T21:27:46.875Z,3.37
2018-06-19T21:30:15.182Z,3.10
2018-06-19T21:32:43.546Z,3.47
2018-06-19T21:35:11.878Z,3.40
2018-06-19T21:37:40.174Z,3.33
2018-06-19T21:40:08.796Z,2.63
2018-06-19T21:42:37.116Z,3.10
2018-06-19T21:45:05.582Z,3.13
2018-06-19T21:47:33.881Z,3.47
2018-06-19T21:50:02.236Z,2.90
2018-06-19T21:52:30.512Z,3.07
2018-06-19T21:54:58.834Z,3.00
2018-06-19T21:57:27.069Z,3.10
2018-06-19T21:59:55.384Z,3.07
2018-06-19T22:02:29.092Z,3.07
2018-06-19T22:04:57.387Z,2.77
2018-06-19T22:07:25.670Z,2.87
2018-06-19T22:09:53.972Z,2.90
2018-06-19T22:12:22.298Z,2.90
2018-06-19T22:14:50.614Z,2.97
2018-06-19T22:17:18.902Z,3.10
2018-06-19T22:19:47.319Z,3.00
2018-06-19T22:22:15.620Z,3.30
2018-06-19T22:24:43.935Z,2.97
2018-06-19T22:27:12.271Z,3.57
2018-06-19T22:29:40.595Z,3.13
2018-06-19T22:32:08.965Z,3.03
2018-06-19T22:34:37.249Z,3.00
2018-06-19T22:37:05.515Z,3.20
2018-06-19T22:39:34.014Z,3.63
2018-06-19T22:42:02.340Z,3.80
2018-06-19T22:44:30.681Z,3.37
2018-06-19T22:46:59.041Z,3.93
2018-06-19T22:49:27.323Z,3.40
2018-06-19T22:51:55.615Z,3.60
2018-06-19T22:54:23.934Z,3.70
2018-06-19T22:56:52.216Z,3.43
2018-06-19T22:59:20.549Z,3.30
2018-06-19T23:01:48.866Z,3.37
2018-06-19T23:04:17.336Z,3.07
2018-06-19T23:06:45.700Z,3.10
2018-06-19T23:09:14.007Z,3.80
2018-06-19T23:11:42.318Z,3.53
2018-06-19T23:14:10.599Z,3.60
2018-06-19T23:16:38.940Z,3.43
2018-06-19T23:19:07.279Z,3.43
2018-06-19T23:21:35.597Z,3.57
2018-06-19T23:24:03.918Z,3.30
2018-06-19T23:26:32.233Z,3.67
2018-06-19T23:29:00.555Z,3.30
2018-06-19T23:31:28.813Z,3.43
2018-06-19T23:33:57.138Z,3.43
2018-06-19T23:36:25.455Z,3.63
2018-06-19T23:38:53.780Z,4.43
2018-06-19T23:41:21.979Z,3.80
2018-06-19T23:43:50.264Z,4.03
2018-06-19T23:46:18.781Z,4.30
2018-06-19T23:48:47.107Z,4.00
2018-06-19T23:51:15.439Z,4.03
2018-06-19T23:53:43.751Z,3.67
2018-06-19T23:56:12.062Z,3.60
2018-06-19T23:58:40.350Z,4.00
